Pagina principală
METAR-TAF:

METAR-TAF

Aeroporturi :

Kailua, Hawaii, Statele Unite ale Americii

Latitudine: 19-44-27N, longitudine: 156-03-02W, elevație: 13 m

Observații meteo curente

Raportul a fost făcut în urmă cu 59 de minute, la 08:53 UTC
Vânt 9 kt de la Sud-est
Temperatură 24°C
Umiditate 74%
Presiune 1019 hPa
Vizibilitate: 16.1 km
Cer senin

METAR: PHKO 240853Z AUTO 13009KT 10SM CLR 24/19 A3009 RMK AO2 SLP188 T02390189 51015

Ora: 23:52 (09:52 UTC)

Prognoză

Raportul a fost făcut în urmă cu 4 ore și 32 de minute, la 05:20 UTC
Prognoză valabilă de la 24 ora 06 UTC la 25 ora 06 UTC
Vânt 10 kt de la Est
Vizibilitate: 10 km
Nori împrăștiați la o înălțime de 5000 picior
De la 24 ora 2000 UTC
Vânt 10 kt de la Sud/Sud-vest
Vizibilitate: 10 km
Nori fragmentați la o înălțime de 5000 picior
averse în apropiere,

TAF: PHKO 240520Z 2406/2506 09010KT P6SM SCT050 FM242000 21010KT P6SM VCSH BKN050

Observații și prognoze meteo pentru peste 4.000 de aeroporturi (rapoarte METAR și TAF).

Stațiile disponibile sunt reprezentate pe hartă prin puncte galbene și roșii.

Țineți indicatorul mouse-ului pe punctul dorit pentru a vedea denumirea stației.

Apoi, faceți clic pentru a vedea observațiile și prognozele meteorologice.

Pentru a schimba harta: Pentru mărire, faceți clic pe butoanele verzi cu cruce neagră; pentru micșorare, pe butonul verde cu o liniuță; pentru hărți învecinate, pe săgețile verzi.


METAR-TAF: